Time;durP1;ratioP1;P1;durP2;ratioP2;P2;SDS_P1;SDS_P2;PMS_P1;PMS_P2;Temp;Humidity;BMP_temperature;BMP_pressure;BME280_temperature;BME280_humidity;BME280_pressure;Samples;Min_cycle;Max_cycle;Signal;HPM_P1;HPM_P2
2023/04/02 00:01:43;;;;;;;4.25;2.85;;;;;;;15.92;49.16;92415.28;4986471;28;20061;-87
2023/04/02 00:04:14;;;;;;;6.18;2.92;;;;;;;15.96;49.34;92421.91;4985541;28;20402;-86
2023/04/02 00:06:43;;;;;;;5.32;3.20;;;;;;;15.90;49.41;92428.69;4973692;28;20038;-88
2023/04/02 00:09:11;;;;;;;5.53;2.97;;;;;;;15.96;49.29;92432.09;4988891;28;20046;-86
2023/04/02 00:11:38;;;;;;;4.35;2.60;;;;;;;15.91;49.44;92422.72;4989826;28;20077;-85
2023/04/02 00:14:23;;;;;;;5.38;3.15;;;;;;;15.92;49.29;92418.03;4989587;28;20057;-84
2023/04/02 00:16:48;;;;;;;4.95;2.90;;;;;;;15.92;49.51;92420.75;4989894;28;20085;-84
2023/04/02 00:19:27;;;;;;;5.72;3.35;;;;;;;15.92;49.27;92423.47;4988628;28;20039;-84
2023/04/02 00:21:52;;;;;;;7.28;3.03;;;;;;;15.92;49.08;92426.94;4957054;28;20275;-85
2023/04/02 00:24:19;;;;;;;5.95;2.65;;;;;;;15.92;49.29;92426.19;4989282;28;20050;-84
2023/04/02 00:26:47;;;;;;;5.18;3.13;;;;;;;15.89;49.42;92433.41;4989347;28;20034;-84
2023/04/02 00:29:14;;;;;;;4.20;3.00;;;;;;;15.92;49.61;92426.19;4972682;28;20129;-83
2023/04/02 00:31:47;;;;;;;4.40;2.83;;;;;;;15.92;49.06;92429.66;4989741;28;20188;-84
2023/04/02 00:34:24;;;;;;;4.65;3.03;;;;;;;15.93;48.94;92438.56;4989376;28;20124;-85
2023/04/02 00:36:50;;;;;;;5.38;3.13;;;;;;;15.90;49.33;92431.44;4989331;28;20047;-86
2023/04/02 00:39:19;;;;;;;6.47;3.17;;;;;;;15.90;49.32;92432.16;4988594;28;20097;-84
2023/04/02 00:41:48;;;;;;;4.10;2.40;;;;;;;15.92;49.41;92437.84;4988996;28;20054;-84
2023/04/02 00:44:13;;;;;;;3.83;2.83;;;;;;;15.90;49.39;92428.69;4989026;28;20050;-88
2023/04/02 00:46:48;;;;;;;4.55;2.75;;;;;;;15.89;49.29;92436.16;4989119;28;20048;-84
2023/04/02 00:49:26;;;;;;;4.88;2.63;;;;;;;15.94;49.27;92432.59;4988611;28;20058;-84
2023/04/02 00:52:03;;;;;;;4.45;2.78;;;;;;;15.92;49.37;92443.28;4978773;28;20046;-87
2023/04/02 00:54:30;;;;;;;3.65;2.60;;;;;;;15.91;48.98;92439.09;4989389;28;20039;-87
2023/04/02 00:56:56;;;;;;;5.07;3.05;;;;;;;15.89;49.00;92441.59;4988988;28;20046;-85
2023/04/02 00:59:35;;;;;;;3.33;2.55;;;;;;;15.91;49.22;92439.09;4972650;28;20105;-85
2023/04/02 01:02:13;;;;;;;4.63;2.40;;;;;;;15.92;49.36;92443.28;4982043;28;20551;-84
2023/04/02 01:04:39;;;;;;;3.42;2.13;;;;;;;15.90;49.28;92440.34;4990088;28;20047;-85
2023/04/02 01:07:06;;;;;;;6.22;2.75;;;;;;;15.89;49.14;92435.41;4987707;28;20042;-84
2023/04/02 01:09:44;;;;;;;3.78;2.88;;;;;;;15.92;49.34;92437.09;4988593;28;20054;-88
2023/04/02 01:12:41;;;;;;;4.22;2.42;;;;;;;15.95;49.27;92439.53;4968743;28;20471;-87
2023/04/02 01:15:15;;;;;;;4.85;2.80;;;;;;;15.94;48.96;92434.59;4980987;28;20101;-84
2023/04/02 01:18:08;;;;;;;4.47;2.50;;;;;;;15.94;49.30;92429.16;5003775;28;20125;-84
2023/04/02 01:20:40;;;;;;;5.38;3.00;;;;;;;15.93;49.02;92435.84;4988037;28;20057;-85
2023/04/02 01:23:23;;;;;;;3.78;2.40;;;;;;;15.94;49.20;92431.88;4986990;28;20104;-85
2023/04/02 01:25:54;;;;;;;5.03;2.40;;;;;;;15.91;49.22;92433.63;4988524;28;20572;-87
2023/04/02 01:28:26;;;;;;;3.28;2.42;;;;;;;15.93;48.99;92428.41;4987774;28;20097;-84
2023/04/02 01:30:53;;;;;;;5.22;3.00;;;;;;;15.90;49.35;92434.88;4988358;28;20066;-85
2023/04/02 01:33:23;;;;;;;4.80;2.22;;;;;;;15.89;49.05;92438.13;4987783;28;20141;-85
2023/04/02 01:35:54;;;;;;;6.10;2.63;;;;;;;15.89;48.98;92440.84;4988155;28;20038;-85
2023/04/02 01:38:26;;;;;;;3.92;2.42;;;;;;;15.89;49.02;92438.88;4971360;28;20046;-85
2023/04/02 01:41:01;;;;;;;3.88;2.60;;;;;;;15.89;49.19;92436.16;4967710;28;20050;-87
2023/04/02 01:43:36;;;;;;;3.35;2.40;;;;;;;15.87;49.35;92440.63;5003956;28;20058;-84
2023/04/02 01:46:24;;;;;;;3.85;2.50;;;;;;;15.92;48.88;92443.28;4988087;28;20100;-86
2023/04/02 01:48:51;;;;;;;2.97;2.10;;;;;;;15.90;49.15;92442.31;5004361;28;20452;-85
2023/04/02 01:51:30;;;;;;;3.95;2.40;;;;;;;15.92;49.00;92442.56;4986991;28;20487;-84
2023/04/02 01:53:55;;;;;;;3.97;2.60;;;;;;;15.92;49.48;92439.81;4987358;28;20038;-87
2023/04/02 01:56:21;;;;;;;3.72;2.20;;;;;;;15.89;48.86;92440.84;4987401;28;20113;-85
2023/04/02 01:58:48;;;;;;;3.97;2.47;;;;;;;15.89;49.08;92441.59;5004213;28;20034;-84
2023/04/02 02:01:15;;;;;;;4.07;2.63;;;;;;;15.88;48.98;92445.56;4986397;28;20038;-85
2023/04/02 02:03:41;;;;;;;3.80;2.45;;;;;;;15.87;49.10;92452.28;4987374;28;20103;-85
2023/04/02 02:06:10;;;;;;;2.67;2.05;;;;;;;15.91;49.28;92457.44;5003189;28;20034;-84
2023/04/02 02:08:40;;;;;;;4.25;2.42;;;;;;;15.91;49.02;92454.69;4954764;28;20050;-84
2023/04/02 02:11:06;;;;;;;3.10;2.13;;;;;;;15.85;48.99;92454.78;4970364;28;20129;-84
2023/04/02 02:13:32;;;;;;;3.40;2.25;;;;;;;15.90;49.02;92456.69;4971766;28;20030;-85
2023/04/02 02:15:58;;;;;;;4.03;2.40;;;;;;;15.87;49.34;92454.25;4987470;28;20050;-84
2023/04/02 02:18:23;;;;;;;3.13;2.10;;;;;;;15.89;48.95;92457.22;4986981;28;20040;-84
2023/04/02 02:20:50;;;;;;;3.42;2.30;;;;;;;15.87;48.91;92468.63;4986746;28;20038;-84
2023/04/02 02:23:15;;;;;;;3.65;2.40;;;;;;;15.91;49.28;92463.63;4954900;28;20076;-86
2023/04/02 02:25:40;;;;;;;3.70;2.10;;;;;;;15.92;49.13;92465.09;4986880;28;20042;-86
2023/04/02 02:28:20;;;;;;;4.15;2.08;;;;;;;15.92;48.97;92469.81;4970664;28;20133;-84
2023/04/02 02:30:58;;;;;;;3.05;2.00;;;;;;;15.92;49.25;92477.97;4971050;28;20413;-86
2023/04/02 02:33:24;;;;;;;3.15;2.05;;;;;;;15.90;49.23;92473.03;4988369;28;20117;-84
2023/04/02 02:36:01;;;;;;;3.80;2.05;;;;;;;15.88;48.96;92477.53;4986830;28;20517;-84
2023/04/02 02:38:48;;;;;;;3.15;2.22;;;;;;;15.86;48.93;92474.59;4987042;28;20038;-86
2023/04/02 02:41:18;;;;;;;4.13;2.30;;;;;;;15.87;49.12;92478.78;4984277;28;20054;-84
2023/04/02 02:43:52;;;;;;;5.05;2.55;;;;;;;15.86;49.25;92480.03;4986652;28;20125;-84
2023/04/02 02:46:19;;;;;;;2.75;2.20;;;;;;;15.87;49.25;92478.78;4970155;28;20086;-84
2023/04/02 02:48:45;;;;;;;3.95;2.40;;;;;;;15.91;49.22;92485.41;4987042;28;20056;-85
2023/04/02 02:51:17;;;;;;;3.08;1.85;;;;;;;15.88;49.34;92481.00;4985899;28;20125;-87
2023/04/02 02:53:45;;;;;;;4.05;2.20;;;;;;;15.89;49.28;92487.94;4971042;28;20049;-85
2023/04/02 02:56:11;;;;;;;3.97;2.40;;;;;;;15.87;48.89;92479.53;4986694;28;20804;-85
2023/04/02 02:58:36;;;;;;;2.65;1.77;;;;;;;15.87;49.24;92484.25;4978941;28;20042;-84
2023/04/02 03:01:01;;;;;;;3.78;2.40;;;;;;;15.85;48.99;92490.19;5001262;28;20195;-87
2023/04/02 03:03:28;;;;;;;3.78;2.22;;;;;;;15.88;49.21;92489.19;4969006;28;20046;-84
2023/04/02 03:05:56;;;;;;;2.70;2.10;;;;;;;15.86;49.11;92486.22;4937512;28;20039;-84
2023/04/02 03:08:28;;;;;;;2.97;1.80;;;;;;;15.89;49.13;92485.19;4952558;28;20049;-87
2023/04/02 03:11:05;;;;;;;2.55;1.83;;;;;;;15.98;48.89;92487.56;4981188;28;20037;-85
2023/04/02 03:13:34;;;;;;;2.70;1.90;;;;;;;15.90;49.12;92488.66;4988316;28;20053;-86
2023/04/02 03:16:04;;;;;;;2.08;1.40;;;;;;;15.88;48.76;92489.19;4972464;28;20124;-86
2023/04/02 03:18:33;;;;;;;3.70;1.98;;;;;;;15.89;48.88;92495.38;4980220;28;20518;-84
2023/04/02 03:21:06;;;;;;;2.67;1.80;;;;;;;15.90;48.99;92488.66;4987538;28;20046;-87
2023/04/02 03:23:37;;;;;;;4.45;1.90;;;;;;;15.87;48.84;92495.13;5004004;28;20640;-83
2023/04/02 03:26:07;;;;;;;3.30;1.98;;;;;;;15.86;49.34;92501.84;4972545;28;20571;-85
2023/04/02 03:28:36;;;;;;;2.80;1.95;;;;;;;15.85;48.89;92511.28;4986950;28;20053;-86
2023/04/02 03:31:13;;;;;;;2.17;1.50;;;;;;;15.83;49.03;92505.59;4985877;28;20047;-86
2023/04/02 03:33:44;;;;;;;3.45;2.20;;;;;;;15.85;48.92;92508.53;4970174;28;20523;-87
2023/04/02 03:36:27;;;;;;;4.38;2.08;;;;;;;15.88;48.96;92504.78;4954149;28;20046;-84
2023/04/02 03:39:13;;;;;;;2.70;1.77;;;;;;;15.84;49.63;92513.25;4970666;28;20045;-86
2023/04/02 03:41:44;;;;;;;2.72;1.70;;;;;;;15.82;49.07;92507.59;4989325;28;20081;-85
2023/04/02 03:44:18;;;;;;;3.20;2.30;;;;;;;15.82;49.14;92507.59;4989617;28;20077;-86
2023/04/02 03:46:45;;;;;;;2.45;1.83;;;;;;;15.84;49.22;92504.34;4974426;28;20280;-84
2023/04/02 03:49:17;;;;;;;3.15;2.00;;;;;;;15.85;49.40;92514.00;4989389;28;20505;-85
2023/04/02 03:51:54;;;;;;;2.13;1.80;;;;;;;15.85;49.20;92506.56;4973629;28;20065;-84
2023/04/02 03:54:20;;;;;;;4.05;1.73;;;;;;;15.84;48.96;92510.53;4973352;28;20147;-85
2023/04/02 03:56:46;;;;;;;4.00;2.00;;;;;;;15.87;49.01;92514.94;4990459;28;20445;-85
2023/04/02 03:59:30;;;;;;;4.18;1.75;;;;;;;15.93;48.89;92504.00;4989524;28;20045;-84
2023/04/02 04:02:00;;;;;;;2.97;1.75;;;;;;;15.85;49.02;92514.72;4992864;28;20080;-84
2023/04/02 04:04:28;;;;;;;2.58;1.67;;;;;;;15.82;49.31;92518.47;4989107;28;20737;-88
2023/04/02 04:06:55;;;;;;;3.20;2.00;;;;;;;15.81;49.35;92508.84;4990183;28;20050;-84
2023/04/02 04:09:30;;;;;;;2.40;1.50;;;;;;;15.85;48.94;92527.63;4989110;28;20121;-87
2023/04/02 04:12:20;;;;;;;2.58;1.75;;;;;;;15.85;49.28;92525.63;4989132;28;20070;-86
2023/04/02 04:14:50;;;;;;;2.80;1.60;;;;;;;15.84;48.92;92532.34;4977550;28;20034;-85
2023/04/02 04:17:28;;;;;;;2.10;1.75;;;;;;;15.82;49.14;92536.81;4972882;28;20108;-87
2023/04/02 04:19:59;;;;;;;3.45;1.80;;;;;;;15.87;49.23;92544.94;4971813;28;20054;-85
2023/04/02 04:22:30;;;;;;;2.85;1.90;;;;;;;15.84;49.09;92542.50;4988891;28;20052;-84
2023/04/02 04:24:57;;;;;;;2.33;1.73;;;;;;;15.81;49.07;92543.53;4989562;28;20096;-87
2023/04/02 04:27:32;;;;;;;2.45;1.80;;;;;;;15.80;49.30;92542.81;4989410;28;22797;-87
2023/04/02 04:30:08;;;;;;;2.10;1.60;;;;;;;15.84;49.16;92542.50;4990006;28;20121;-84
2023/04/02 04:32:48;;;;;;;2.80;1.77;;;;;;;15.83;48.95;92549.94;4990108;28;20140;-84
2023/04/02 04:35:20;;;;;;;2.50;1.52;;;;;;;15.82;49.20;92548.47;4987061;28;20039;-83
2023/04/02 04:37:48;;;;;;;2.45;1.75;;;;;;;15.83;49.28;92543.75;4989643;28;20042;-86
2023/04/02 04:40:23;;;;;;;2.53;1.95;;;;;;;15.81;49.28;92541.53;4988695;28;20085;-86
2023/04/02 04:42:49;;;;;;;2.92;1.48;;;;;;;15.85;49.18;92549.41;4988954;28;20034;-88
2023/04/02 04:45:51;;;;;;;1.95;1.48;;;;;;;15.84;49.02;92543.22;4972279;28;20050;-87
2023/04/02 04:48:34;;;;;;;1.92;1.52;;;;;;;15.83;48.90;92551.91;4986225;28;20058;-84
2023/04/02 04:51:09;;;;;;;3.03;1.45;;;;;;;15.82;49.06;92540.28;4997648;28;20053;-84
2023/04/02 04:53:39;;;;;;;3.25;2.00;;;;;;;15.82;49.09;92551.19;4987747;28;20128;-83
2023/04/02 04:56:06;;;;;;;2.40;1.50;;;;;;;15.85;49.13;92555.59;4987657;28;20456;-84
2023/04/02 04:58:42;;;;;;;1.42;1.30;;;;;;;15.82;48.93;92562.09;4988988;28;20038;-86
2023/04/02 05:01:28;;;;;;;2.50;1.33;;;;;;;15.84;48.94;92569.75;4994127;28;20821;-85
2023/04/02 05:04:00;;;;;;;2.55;1.55;;;;;;;15.80;49.11;92567.34;4987706;28;20041;-84
2023/04/02 05:06:39;;;;;;;2.20;1.67;;;;;;;15.80;49.28;92572.78;4987496;28;20026;-83
2023/04/02 05:09:11;;;;;;;1.92;1.33;;;;;;;15.79;49.25;92571.31;4987709;28;20042;-84
2023/04/02 05:11:43;;;;;;;2.85;1.70;;;;;;;15.84;48.88;92572.47;4987943;28;20100;-84
2023/04/02 05:14:19;;;;;;;2.80;1.63;;;;;;;15.83;49.02;92573.72;4987970;28;20042;-84
2023/04/02 05:16:50;;;;;;;3.42;1.80;;;;;;;15.82;49.13;92581.16;4988181;28;20144;-83
2023/04/02 05:19:24;;;;;;;2.22;1.60;;;;;;;15.80;49.28;92577.50;4971891;28;20042;-84
2023/04/02 05:22:21;;;;;;;2.50;1.80;;;;;;;15.80;49.05;92575.50;4984619;28;20105;-84
2023/04/02 05:24:57;;;;;;;2.10;1.42;;;;;;;15.80;49.25;92593.84;4988097;28;20046;-85
2023/04/02 05:27:43;;;;;;;2.25;1.38;;;;;;;15.84;49.03;92591.56;4987792;28;20046;-84
2023/04/02 05:30:27;;;;;;;1.73;1.27;;;;;;;15.84;49.20;92597.75;4987658;28;20054;-85
2023/04/02 05:32:56;;;;;;;2.47;1.70;;;;;;;15.83;48.92;92599.00;4985942;28;20035;-87
2023/04/02 05:35:24;;;;;;;2.45;1.42;;;;;;;15.79;49.17;92598.56;4987502;28;20058;-84
2023/04/02 05:37:50;;;;;;;3.03;1.73;;;;;;;15.80;49.23;92597.31;4972181;28;20501;-84
2023/04/02 05:40:33;;;;;;;1.95;1.45;;;;;;;15.85;49.22;92606.66;4971410;28;20050;-85
2023/04/02 05:42:59;;;;;;;1.80;1.30;;;;;;;15.83;48.71;92607.16;4987682;28;20564;-85
2023/04/02 05:45:27;;;;;;;2.20;1.25;;;;;;;15.84;49.11;92608.63;4988051;28;20046;-84
2023/04/02 05:47:58;;;;;;;1.92;1.30;;;;;;;15.79;49.08;92612.19;4971589;28;20051;-84
2023/04/02 05:50:29;;;;;;;3.17;1.58;;;;;;;15.80;49.21;92616.38;4995874;28;20449;-86
2023/04/02 05:52:57;;;;;;;1.95;1.40;;;;;;;15.81;48.91;92619.81;4969718;28;20108;-87
2023/04/02 05:55:30;;;;;;;1.65;1.20;;;;;;;15.82;49.21;92619.31;4987564;28;20049;-88
2023/04/02 05:58:01;;;;;;;2.90;1.83;;;;;;;15.85;49.19;92618.28;4985321;28;20042;-87
2023/04/02 06:00:36;;;;;;;1.85;1.30;;;;;;;15.85;49.21;92623.00;4987359;28;20050;-87
2023/04/02 06:03:06;;;;;;;1.60;1.50;;;;;;;15.85;49.18;92625.72;4986853;28;20038;-91
2023/04/02 06:05:39;;;;;;;1.48;1.10;;;;;;;15.83;49.20;92622.78;4971683;28;20050;-88
2023/04/02 06:08:07;;;;;;;3.53;1.30;;;;;;;15.81;49.09;92623.28;4986906;28;20050;-86
2023/04/02 06:10:44;;;;;;;2.08;1.38;;;;;;;15.85;49.19;92634.63;4987704;28;20061;-90
2023/04/02 06:13:11;;;;;;;2.45;1.40;;;;;;;15.85;49.00;92636.63;4970560;28;20053;-87
2023/04/02 06:15:36;;;;;;;2.55;1.70;;;;;;;15.81;48.84;92633.44;4987851;28;20038;-87
2023/04/02 06:18:05;;;;;;;1.42;1.20;;;;;;;15.84;48.92;92632.44;4986912;28;20038;-87
2023/04/02 06:20:30;;;;;;;1.50;1.10;;;;;;;15.82;49.27;92629.47;4986625;28;20042;-87
2023/04/02 06:22:59;;;;;;;2.03;1.17;;;;;;;15.81;48.85;92638.91;4987184;28;20050;-87
2023/04/02 06:25:28;;;;;;;1.63;1.27;;;;;;;15.80;48.75;92632.75;4987352;28;20042;-87
2023/04/02 06:27:54;;;;;;;1.30;1.13;;;;;;;15.82;49.03;92634.94;4988409;28;20035;-88
2023/04/02 06:30:23;;;;;;;2.28;1.40;;;;;;;15.81;48.89;92647.81;4970636;28;20046;-88
2023/04/02 06:32:49;;;;;;;1.90;1.50;;;;;;;15.79;49.06;92639.44;4987445;28;20463;-89
2023/04/02 06:35:14;;;;;;;1.45;1.00;;;;;;;15.82;49.15;92640.38;4986687;28;20038;-89
2023/04/02 06:37:41;;;;;;;2.80;1.40;;;;;;;15.79;49.23;92644.88;4987412;28;20046;-88
2023/04/02 06:40:45;;;;;;;2.20;1.48;;;;;;;15.83;48.79;92644.56;4970200;28;20038;-88
2023/04/02 06:43:15;;;;;;;1.38;1.10;;;;;;;15.83;48.73;92661.66;4997965;28;20042;-90
2023/04/02 06:45:41;;;;;;;1.50;1.10;;;;;;;15.81;49.10;92658.72;4987564;28;20038;-89
2023/04/02 06:48:11;;;;;;;1.73;1.23;;;;;;;15.74;49.11;92662.75;4986344;28;20049;-89
2023/04/02 06:50:53;;;;;;;1.40;1.20;;;;;;;15.80;49.16;92661.97;4957592;28;20051;-88
2023/04/02 06:53:22;;;;;;;1.55;1.00;;;;;;;15.80;48.84;92660.00;4986273;28;20529;-87
2023/04/02 06:55:50;;;;;;;2.67;1.40;;;;;;;15.77;49.12;92663.72;4987600;28;20053;-91
2023/04/02 06:58:16;;;;;;;1.73;1.27;;;;;;;15.77;49.17;92661.75;4986462;28;20058;-88
2023/04/02 07:00:42;;;;;;;3.17;1.45;;;;;;;15.76;49.03;92671.16;4987013;28;20270;-87
2023/04/02 07:03:24;;;;;;;1.30;1.13;;;;;;;15.77;49.02;92672.66;4986495;28;20148;-87
2023/04/02 07:05:49;;;;;;;1.88;1.20;;;;;;;15.79;49.12;92674.88;4986917;28;20497;-87
2023/04/02 07:08:15;;;;;;;1.80;1.40;;;;;;;15.79;48.95;92683.03;4981249;28;20652;-89
2023/04/02 07:10:41;;;;;;;2.58;1.17;;;;;;;15.79;49.09;92674.13;5003346;28;20043;-89
2023/04/02 07:13:07;;;;;;;2.38;1.17;;;;;;;15.79;49.19;92674.88;5002793;28;20050;-88
2023/04/02 07:15:33;;;;;;;1.55;1.20;;;;;;;15.81;48.96;92682.50;4999018;28;20042;-88
2023/04/02 07:17:58;;;;;;;2.35;1.42;;;;;;;15.76;49.18;92682.06;4983041;28;20043;-87
2023/04/02 07:20:26;;;;;;;1.48;1.10;;;;;;;15.80;49.17;92684.50;4986162;28;20042;-88
2023/04/02 07:22:53;;;;;;;1.67;1.00;;;;;;;15.79;48.98;92685.75;4986620;28;20037;-89
2023/04/02 07:25:18;;;;;;;2.53;1.40;;;;;;;15.80;48.97;92683.78;4985828;28;20053;-87
2023/04/02 07:27:44;;;;;;;1.40;1.00;;;;;;;15.83;49.11;92690.91;4987644;28;20474;-90
2023/04/02 07:30:09;;;;;;;1.85;1.20;;;;;;;15.78;49.22;92695.19;4985873;28;20516;-88
2023/04/02 07:32:35;;;;;;;1.38;1.00;;;;;;;15.81;49.02;92705.03;4986534;28;20038;-88
2023/04/02 07:35:01;;;;;;;2.40;1.52;;;;;;;15.74;49.04;92700.91;4959954;28;20045;-91
2023/04/02 07:37:27;;;;;;;1.33;1.05;;;;;;;15.75;48.99;92705.13;4954436;28;20040;-87
2023/04/02 07:39:52;;;;;;;2.05;1.20;;;;;;;15.76;48.96;92703.13;4986330;28;20042;-91
2023/04/02 07:42:17;;;;;;;1.52;1.00;;;;;;;15.76;48.98;92711.31;4979256;28;20038;-88
2023/04/02 07:44:43;;;;;;;1.92;1.20;;;;;;;15.86;48.87;92712.44;4984728;28;20043;-88
2023/04/02 07:47:09;;;;;;;1.70;1.15;;;;;;;15.82;48.95;92709.25;4984400;28;20461;-87
2023/04/02 07:49:34;;;;;;;1.85;1.20;;;;;;;15.80;48.98;92719.19;4986187;28;20519;-89
2023/04/02 07:52:00;;;;;;;1.45;0.80;;;;;;;15.80;49.12;92713.75;4986175;28;20051;-88
2023/04/02 07:54:26;;;;;;;1.60;1.02;;;;;;;15.82;48.96;92717.41;4982516;28;20089;-89
2023/04/02 07:56:52;;;;;;;2.80;1.25;;;;;;;15.81;49.20;92726.09;4986385;28;20038;-90
2023/04/02 07:59:18;;;;;;;3.60;1.40;;;;;;;15.81;49.05;92728.81;4967993;28;20096;-87
2023/04/02 08:01:43;;;;;;;5.32;1.80;;;;;;;15.77;48.95;92729.88;4985039;28;20035;-87
2023/04/02 08:04:17;;;;;;;2.97;1.25;;;;;;;15.77;49.03;92729.88;4968573;28;20465;-87
2023/04/02 08:06:42;;;;;;;1.45;1.10;;;;;;;15.77;49.14;92740.78;5002266;28;20591;-87
2023/04/02 08:09:08;;;;;;;2.13;1.45;;;;;;;15.78;49.03;92738.78;4968814;28;20042;-88
2023/04/02 08:11:33;;;;;;;1.02;0.65;;;;;;;15.76;48.91;92744.75;4969574;28;20049;-89
2023/04/02 08:14:00;;;;;;;1.50;1.10;;;;;;;15.79;49.12;92744.97;4969086;28;20050;-89
2023/04/02 08:16:26;;;;;;;1.88;1.20;;;;;;;15.77;49.28;92742.75;4985412;28;20046;-88
2023/04/02 08:18:51;;;;;;;1.80;1.10;;;;;;;15.81;48.96;92745.91;4993357;28;20041;-89
2023/04/02 08:21:17;;;;;;;2.83;1.30;;;;;;;15.77;49.06;92754.41;4967982;28;20105;-87
2023/04/02 08:23:42;;;;;;;4.90;1.08;;;;;;;15.78;49.09;92755.13;4968448;28;20038;-87
2023/04/02 08:26:08;;;;;;;7.50;1.30;;;;;;;15.76;48.91;92754.91;4969346;28;20050;-87
2023/04/02 08:28:34;;;;;;;5.90;1.48;;;;;;;15.74;49.25;92763.59;4972840;28;20126;-87
2023/04/02 08:30:59;;;;;;;3.38;1.00;;;;;;;15.79;49.11;92756.63;4988142;28;20034;-87
2023/04/02 08:33:25;;;;;;;2.60;1.17;;;;;;;15.78;49.24;92757.88;4971981;28;20575;-87
2023/04/02 08:35:50;;;;;;;3.70;1.17;;;;;;;15.85;48.91;92760.00;4988419;28;20042;-88
2023/04/02 08:38:16;;;;;;;2.85;1.30;;;;;;;15.81;48.94;92753.34;4972812;28;20061;-89
2023/04/02 08:40:46;;;;;;;3.22;1.50;;;;;;;15.83;48.84;92761.75;4988566;28;20045;-87
2023/04/02 08:43:36;;;;;;;3.83;1.15;;;;;;;15.81;49.09;92761.53;4987680;28;20464;-87
2023/04/02 08:46:18;;;;;;;1.98;1.35;;;;;;;15.82;49.22;92766.47;4988706;28;20571;-89
2023/04/02 08:48:46;;;;;;;1.98;1.20;;;;;;;15.82;49.14;92771.19;4989276;28;20053;-88
2023/04/02 08:51:22;;;;;;;1.83;1.25;;;;;;;15.80;49.03;92773.72;4992267;28;20528;-86
2023/04/02 08:53:48;;;;;;;1.92;1.13;;;;;;;15.76;49.19;92772.00;4988221;28;20046;-87
2023/04/02 08:56:32;;;;;;;2.00;1.10;;;;;;;15.80;49.02;92774.44;4971587;28;20045;-87
2023/04/02 08:59:00;;;;;;;2.78;1.00;;;;;;;15.75;49.26;92773.25;4972299;28;20498;-88
2023/04/02 09:01:38;;;;;;;3.33;1.10;;;;;;;15.79;49.43;92772.22;4987809;28;20585;-87
2023/04/02 09:04:06;;;;;;;3.00;1.13;;;;;;;15.82;49.27;92773.91;4987454;28;20485;-89
2023/04/02 09:06:32;;;;;;;2.45;1.10;;;;;;;15.79;48.85;92775.69;4988216;28;20030;-88
2023/04/02 09:08:59;;;;;;;3.95;1.08;;;;;;;15.82;49.13;92782.81;4987797;28;20561;-89
2023/04/02 09:11:31;;;;;;;4.47;1.60;;;;;;;15.82;49.27;92777.38;5002813;28;20046;-85
2023/04/02 09:13:58;;;;;;;4.47;1.40;;;;;;;15.86;49.07;92779.81;5003600;28;20415;-85
2023/04/02 09:16:40;;;;;;;2.38;1.25;;;;;;;15.85;49.04;92787.25;5002581;28;20362;-84
2023/04/02 09:19:16;;;;;;;5.18;1.30;;;;;;;15.85;49.25;92784.53;4988839;28;20035;-88
2023/04/02 09:21:51;;;;;;;4.40;0.93;;;;;;;15.84;49.40;92785.78;4952026;28;20100;-87
2023/04/02 09:24:17;;;;;;;10.27;1.20;;;;;;;15.87;49.06;92792.94;4965583;28;20499;-86
2023/04/02 09:26:42;;;;;;;23.42;2.92;;;;;;;15.85;48.91;92798.16;4952590;28;20118;-89
2023/04/02 09:29:10;;;;;;;11.15;7.07;;;;;;;15.83;49.44;92802.63;4968047;28;20046;-89
2023/04/02 09:31:38;;;;;;;3.97;1.10;;;;;;;15.82;49.27;92801.91;4978780;28;20233;-90
2023/04/02 09:34:30;;;;;;;7.55;1.27;;;;;;;15.83;48.97;92806.09;4966589;28;20046;-89
2023/04/02 09:36:55;;;;;;;3.50;1.20;;;;;;;15.82;49.16;92803.88;4951834;28;20041;-88
2023/04/02 09:39:27;;;;;;;4.57;1.15;;;;;;;15.83;49.12;92808.84;4983159;28;20035;-89
2023/04/02 09:41:52;;;;;;;3.35;1.05;;;;;;;15.82;48.69;92807.34;4951573;28;20051;-88
2023/04/02 09:44:18;;;;;;;3.90;1.00;;;;;;;15.85;48.80;92814.50;4966746;28;20039;-89
2023/04/02 09:46:58;;;;;;;2.22;1.48;;;;;;;15.83;49.13;92816.28;4968382;28;20077;-87
2023/04/02 09:49:30;;;;;;;1.85;1.10;;;;;;;15.81;49.07;92821.47;4952253;28;20121;-89
2023/04/02 09:52:21;;;;;;;5.30;1.25;;;;;;;15.83;49.10;92824.44;4995960;28;20035;-88
2023/04/02 09:55:13;;;;;;;4.13;1.10;;;;;;;15.83;48.97;92827.16;4939263;28;20038;-87
2023/04/02 09:57:38;;;;;;;2.08;1.23;;;;;;;15.78;49.33;92828.72;4967446;28;20039;-88
2023/04/02 10:00:17;;;;;;;2.67;1.23;;;;;;;15.80;49.32;92831.69;4951257;28;20027;-87
2023/04/02 10:02:45;;;;;;;4.93;1.30;;;;;;;15.81;49.33;92824.22;4951252;28;20130;-87
2023/04/02 10:05:20;;;;;;;4.35;1.58;;;;;;;15.82;49.06;92842.78;4950684;28;20089;-87
2023/04/02 10:07:47;;;;;;;2.23;1.30;;;;;;;15.83;48.99;92846.25;4913758;28;1120399;-90
2023/04/02 10:10:30;;;;;;;2.53;1.00;;;;;;;15.81;49.20;92844.03;4971001;28;20688;-88
2023/04/02 10:13:01;;;;;;;3.85;1.40;;;;;;;15.79;49.31;92840.34;4976506;28;20546;-87
2023/04/02 10:15:37;;;;;;;2.97;1.20;;;;;;;15.81;49.20;92846.75;4975638;28;20406;-87
2023/04/02 10:18:07;;;;;;;2.17;1.08;;;;;;;15.82;49.17;92839.31;4985479;28;20054;-87
2023/04/02 10:20:33;;;;;;;5.90;2.50;;;;;;;15.88;48.89;92856.38;4970727;28;20556;-89
2023/04/02 10:22:58;;;;;;;3.25;1.35;;;;;;;15.85;49.16;92857.38;4971322;28;20042;-89
2023/04/02 10:25:24;;;;;;;1.98;1.15;;;;;;;15.84;49.02;92853.91;4970215;28;20038;-88
2023/04/02 10:27:51;;;;;;;1.52;1.10;;;;;;;15.83;48.90;92847.00;4987380;28;20034;-89
2023/04/02 10:30:24;;;;;;;5.65;1.27;;;;;;;15.87;49.05;92857.63;4985898;28;20053;-87
2023/04/02 10:33:10;;;;;;;2.63;1.25;;;;;;;15.88;48.90;92853.66;4986818;28;20046;-88
2023/04/02 10:35:51;;;;;;;2.33;1.27;;;;;;;15.89;49.17;92853.16;4987487;28;20053;-88
2023/04/02 10:38:42;;;;;;;1.63;0.90;;;;;;;15.88;49.04;92854.38;4987577;28;20034;-87
2023/04/02 10:41:32;;;;;;;3.67;1.30;;;;;;;15.87;48.99;92852.91;4986050;28;20097;-87
2023/04/02 10:44:20;;;;;;;1.55;1.00;;;;;;;15.90;48.83;92860.06;4986758;28;20077;-88
2023/04/02 10:46:54;;;;;;;2.83;1.08;;;;;;;15.90;48.91;92867.50;4970449;28;20533;-89
2023/04/02 10:49:21;;;;;;;1.77;1.20;;;;;;;15.87;49.06;92863.06;4985750;28;20516;-88
2023/04/02 10:51:52;;;;;;;2.08;1.00;;;;;;;15.89;49.16;92863.31;4986684;28;20057;-87
2023/04/02 10:54:49;;;;;;;2.78;1.30;;;;;;;15.89;48.86;92874.22;4970196;28;20047;-90
2023/04/02 10:57:28;;;;;;;2.00;1.20;;;;;;;15.89;48.91;92876.94;4969936;28;20489;-87
2023/04/02 11:00:08;;;;;;;2.45;1.35;;;;;;;15.88;48.90;92886.34;4986101;28;20026;-87
2023/04/02 11:03:00;;;;;;;3.22;1.40;;;;;;;15.85;49.06;92887.38;4970386;28;20105;-89
2023/04/02 11:05:42;;;;;;;3.05;0.80;;;;;;;15.84;49.32;92888.59;4986856;28;20086;-88
2023/04/02 11:08:15;;;;;;;2.80;1.25;;;;;;;15.83;49.21;92895.31;4986220;28;20405;-87
2023/04/02 11:10:44;;;;;;;2.00;1.00;;;;;;;15.85;49.19;92893.56;4981689;28;20554;-88
2023/04/02 11:13:21;;;;;;;3.17;1.15;;;;;;;15.85;49.26;92901.72;4933310;28;20054;-87
2023/04/02 11:15:46;;;;;;;2.33;1.27;;;;;;;15.85;49.33;92903.72;4967464;28;20133;-89
2023/04/02 11:18:25;;;;;;;2.75;1.20;;;;;;;15.90;49.14;92906.41;4966835;28;20066;-88
2023/04/02 11:20:56;;;;;;;2.35;0.90;;;;;;;15.86;48.94;92914.13;4975128;28;20227;-88
2023/04/02 11:23:22;;;;;;;3.42;1.60;;;;;;;15.86;48.87;92916.84;5002022;28;20553;-88
2023/04/02 11:25:47;;;;;;;1.67;0.90;;;;;;;15.88;48.99;92924.50;5002694;28;20051;-87
2023/04/02 11:28:29;;;;;;;1.67;0.98;;;;;;;15.89;49.03;92923.28;5002200;28;20053;-87
2023/04/02 11:30:55;;;;;;;1.08;0.80;;;;;;;15.89;49.04;92915.84;4984895;28;20121;-88
2023/04/02 11:33:29;;;;;;;2.00;1.25;;;;;;;15.89;48.99;92926.00;5001843;28;20347;-88
2023/04/02 11:35:55;;;;;;;1.65;1.00;;;;;;;15.86;48.66;92922.28;4986295;28;20046;-88
2023/04/02 11:38:23;;;;;;;0.73;0.63;;;;;;;15.85;49.13;92926.25;5001796;28;20053;-87
2023/04/02 11:40:56;;;;;;;2.47;1.25;;;;;;;15.84;49.15;92930.22;4980499;28;20043;-88
2023/04/02 11:43:34;;;;;;;1.17;1.02;;;;;;;15.86;49.00;92935.91;4966133;28;20049;-90
2023/04/02 11:46:15;;;;;;;3.75;1.00;;;;;;;15.83;49.07;92936.94;4968782;28;20138;-87
2023/04/02 11:48:40;;;;;;;1.08;0.90;;;;;;;15.83;49.29;92950.56;4967934;28;20046;-89
2023/04/02 11:51:23;;;;;;;1.35;0.93;;;;;;;15.87;49.13;92958.47;4957589;28;20049;-87
2023/04/02 11:53:50;;;;;;;1.20;0.90;;;;;;;15.88;49.13;92957.22;4966223;28;20039;-88
2023/04/02 11:56:27;;;;;;;1.13;0.80;;;;;;;15.90;49.08;92958.19;4966836;28;20039;-88